sensor_id;sensor_type;location;lat;lon;timestamp;P1;durP1;ratioP1;P2;durP2;ratioP2
70927;SDS011;58587;53.034;18.576;2023-05-10T14:35:26;4.90;;;3.30;;
70927;SDS011;58587;53.034;18.576;2023-05-10T14:37:52;6.10;;;3.38;;
70927;SDS011;58587;53.034;18.576;2023-05-10T14:40:18;4.13;;;2.90;;
70927;SDS011;58587;53.034;18.576;2023-05-10T14:42:43;5.32;;;3.28;;
70927;SDS011;58587;53.034;18.576;2023-05-10T14:45:09;3.77;;;3.10;;
70927;SDS011;58587;53.034;18.576;2023-05-10T14:47:35;5.60;;;3.00;;
70927;SDS011;58587;53.034;18.576;2023-05-10T14:50:01;3.90;;;2.90;;
70927;SDS011;58587;53.034;18.576;2023-05-10T14:52:26;3.30;;;3.00;;
70927;SDS011;58587;53.034;18.576;2023-05-10T14:54:52;8.65;;;2.90;;
70927;SDS011;58587;53.034;18.576;2023-05-10T14:57:18;5.10;;;2.93;;
70927;SDS011;58587;53.034;18.576;2023-05-10T14:59:43;3.22;;;2.92;;
70927;SDS011;58587;53.034;18.576;2023-05-10T15:02:09;6.63;;;3.13;;
70927;SDS011;58587;53.034;18.576;2023-05-10T15:04:35;5.82;;;3.10;;
70927;SDS011;58587;53.034;18.576;2023-05-10T15:07:00;4.97;;;3.33;;
70927;SDS011;58587;53.034;18.576;2023-05-10T15:09:26;6.23;;;2.90;;
70927;SDS011;58587;53.034;18.576;2023-05-10T15:11:52;4.57;;;3.10;;
70927;SDS011;58587;53.034;18.576;2023-05-10T15:14:18;5.35;;;3.00;;
70927;SDS011;58587;53.034;18.576;2023-05-10T15:16:43;8.77;;;3.73;;
70927;SDS011;58587;53.034;18.576;2023-05-10T15:19:09;4.60;;;3.10;;
70927;SDS011;58587;53.034;18.576;2023-05-10T15:21:34;5.50;;;2.88;;
70927;SDS011;58587;53.034;18.576;2023-05-10T15:24:04;5.27;;;3.20;;
70927;SDS011;58587;53.034;18.576;2023-05-10T15:26:30;3.40;;;3.10;;
70927;SDS011;58587;53.034;18.576;2023-05-10T15:28:56;6.37;;;2.90;;
70927;SDS011;58587;53.034;18.576;2023-05-10T15:31:21;3.40;;;3.10;;
70927;SDS011;58587;53.034;18.576;2023-05-10T15:33:47;6.57;;;2.50;;
70927;SDS011;58587;53.034;18.576;2023-05-10T15:36:12;6.93;;;2.90;;
70927;SDS011;58587;53.034;18.576;2023-05-10T15:38:37;5.50;;;2.45;;
70927;SDS011;58587;53.034;18.576;2023-05-10T15:41:03;5.57;;;2.60;;
70927;SDS011;58587;53.034;18.576;2023-05-10T15:43:28;5.33;;;2.30;;
70927;SDS011;58587;53.034;18.576;2023-05-10T15:45:54;4.18;;;2.22;;
70927;SDS011;58587;53.034;18.576;2023-05-10T15:48:19;3.60;;;2.30;;
70927;SDS011;58587;53.034;18.576;2023-05-10T15:50:45;3.90;;;2.63;;
70927;SDS011;58587;53.034;18.576;2023-05-10T15:53:10;4.07;;;2.60;;
70927;SDS011;58587;53.034;18.576;2023-05-10T15:55:35;4.10;;;2.50;;
70927;SDS011;58587;53.034;18.576;2023-05-10T15:58:01;3.60;;;2.50;;
70927;SDS011;58587;53.034;18.576;2023-05-10T16:00:26;5.17;;;2.20;;
70927;SDS011;58587;53.034;18.576;2023-05-10T16:02:52;5.38;;;2.50;;
70927;SDS011;58587;53.034;18.576;2023-05-10T16:05:18;6.13;;;2.37;;
70927;SDS011;58587;53.034;18.576;2023-05-10T16:07:43;5.00;;;2.77;;
70927;SDS011;58587;53.034;18.576;2023-05-10T16:10:09;3.50;;;2.37;;
70927;SDS011;58587;53.034;18.576;2023-05-10T16:12:35;5.18;;;2.22;;
70927;SDS011;58587;53.034;18.576;2023-05-10T16:15:01;5.93;;;2.20;;
70927;SDS011;58587;53.034;18.576;2023-05-10T16:17:26;5.67;;;2.40;;
70927;SDS011;58587;53.034;18.576;2023-05-10T16:19:52;5.43;;;2.57;;
70927;SDS011;58587;53.034;18.576;2023-05-10T16:22:17;3.53;;;2.10;;
70927;SDS011;58587;53.034;18.576;2023-05-10T16:24:43;5.13;;;2.42;;
70927;SDS011;58587;53.034;18.576;2023-05-10T16:27:08;5.17;;;2.10;;
70927;SDS011;58587;53.034;18.576;2023-05-10T16:29:34;3.37;;;2.10;;
70927;SDS011;58587;53.034;18.576;2023-05-10T16:31:59;4.83;;;2.10;;
70927;SDS011;58587;53.034;18.576;2023-05-10T16:34:25;6.68;;;2.47;;
70927;SDS011;58587;53.034;18.576;2023-05-10T16:36:51;5.00;;;2.40;;
70927;SDS011;58587;53.034;18.576;2023-05-10T16:39:16;4.53;;;2.10;;
70927;SDS011;58587;53.034;18.576;2023-05-10T16:41:41;4.83;;;2.20;;
70927;SDS011;58587;53.034;18.576;2023-05-10T16:44:07;3.77;;;2.20;;
70927;SDS011;58587;53.034;18.576;2023-05-10T16:46:32;2.80;;;1.73;;
70927;SDS011;58587;53.034;18.576;2023-05-10T16:48:58;4.97;;;2.33;;
70927;SDS011;58587;53.034;18.576;2023-05-10T16:51:24;3.13;;;2.42;;
70927;SDS011;58587;53.034;18.576;2023-05-10T16:53:50;5.15;;;2.20;;
70927;SDS011;58587;53.034;18.576;2023-05-10T16:56:15;6.90;;;2.17;;
70927;SDS011;58587;53.034;18.576;2023-05-10T16:58:42;5.72;;;2.15;;
70927;SDS011;58587;53.034;18.576;2023-05-10T17:01:07;4.67;;;1.90;;
70927;SDS011;58587;53.034;18.576;2023-05-10T17:03:33;4.53;;;2.13;;
70927;SDS011;58587;53.034;18.576;2023-05-10T17:05:59;3.97;;;2.00;;
70927;SDS011;58587;53.034;18.576;2023-05-10T17:08:24;5.87;;;2.00;;
70927;SDS011;58587;53.034;18.576;2023-05-10T17:10:50;5.40;;;2.47;;
70927;SDS011;58587;53.034;18.576;2023-05-10T17:13:15;5.60;;;2.40;;
70927;SDS011;58587;53.034;18.576;2023-05-10T17:15:41;4.80;;;2.15;;
70927;SDS011;58587;53.034;18.576;2023-05-10T17:18:06;4.97;;;2.30;;
70927;SDS011;58587;53.034;18.576;2023-05-10T17:20:32;3.90;;;2.10;;
70927;SDS011;58587;53.034;18.576;2023-05-10T17:22:58;4.13;;;2.03;;
70927;SDS011;58587;53.034;18.576;2023-05-10T17:25:24;7.15;;;2.67;;
70927;SDS011;58587;53.034;18.576;2023-05-10T17:27:49;5.03;;;2.60;;
70927;SDS011;58587;53.034;18.576;2023-05-10T17:30:14;7.03;;;2.27;;
70927;SDS011;58587;53.034;18.576;2023-05-10T17:32:40;5.05;;;2.10;;
70927;SDS011;58587;53.034;18.576;2023-05-10T17:35:06;5.87;;;2.30;;
70927;SDS011;58587;53.034;18.576;2023-05-10T17:37:32;6.30;;;2.42;;
70927;SDS011;58587;53.034;18.576;2023-05-10T17:40:00;3.37;;;1.90;;
70927;SDS011;58587;53.034;18.576;2023-05-10T17:42:28;5.25;;;2.20;;
70927;SDS011;58587;53.034;18.576;2023-05-10T17:44:53;5.47;;;2.10;;
70927;SDS011;58587;53.034;18.576;2023-05-10T17:47:19;11.43;;;7.73;;
70927;SDS011;58587;53.034;18.576;2023-05-10T17:49:45;6.10;;;2.45;;
70927;SDS011;58587;53.034;18.576;2023-05-10T17:52:10;3.17;;;2.70;;
70927;SDS011;58587;53.034;18.576;2023-05-10T17:54:36;9.37;;;3.50;;
70927;SDS011;58587;53.034;18.576;2023-05-10T17:57:01;6.00;;;3.40;;
70927;SDS011;58587;53.034;18.576;2023-05-10T17:59:27;9.50;;;4.60;;
70927;SDS011;58587;53.034;18.576;2023-05-10T18:01:53;5.00;;;3.70;;
70927;SDS011;58587;53.034;18.576;2023-05-10T18:04:18;11.77;;;4.87;;
70927;SDS011;58587;53.034;18.576;2023-05-10T18:06:43;10.60;;;5.67;;
70927;SDS011;58587;53.034;18.576;2023-05-10T18:09:09;14.07;;;6.37;;
70927;SDS011;58587;53.034;18.576;2023-05-10T18:11:35;14.07;;;8.15;;
70927;SDS011;58587;53.034;18.576;2023-05-10T18:14:02;13.73;;;7.43;;
70927;SDS011;58587;53.034;18.576;2023-05-10T18:16:27;12.60;;;8.87;;
70927;SDS011;58587;53.034;18.576;2023-05-10T18:18:53;8.33;;;5.40;;
70927;SDS011;58587;53.034;18.576;2023-05-10T18:21:18;8.37;;;3.90;;
70927;SDS011;58587;53.034;18.576;2023-05-10T18:23:43;9.00;;;3.78;;
70927;SDS011;58587;53.034;18.576;2023-05-10T18:26:09;5.33;;;2.50;;
70927;SDS011;58587;53.034;18.576;2023-05-10T18:28:35;6.97;;;3.37;;
70927;SDS011;58587;53.034;18.576;2023-05-10T18:31:00;6.30;;;3.38;;
70927;SDS011;58587;53.034;18.576;2023-05-10T18:33:26;7.70;;;3.10;;
70927;SDS011;58587;53.034;18.576;2023-05-10T18:35:52;6.88;;;2.90;;
70927;SDS011;58587;53.034;18.576;2023-05-10T18:38:17;5.43;;;2.73;;
70927;SDS011;58587;53.034;18.576;2023-05-10T18:40:43;7.43;;;2.83;;
70927;SDS011;58587;53.034;18.576;2023-05-10T18:43:08;5.67;;;3.53;;
70927;SDS011;58587;53.034;18.576;2023-05-10T18:45:34;6.83;;;4.33;;
70927;SDS011;58587;53.034;18.576;2023-05-10T18:47:59;7.50;;;2.97;;
70927;SDS011;58587;53.034;18.576;2023-05-10T18:50:24;5.38;;;3.53;;
70927;SDS011;58587;53.034;18.576;2023-05-10T18:52:50;8.93;;;4.13;;
70927;SDS011;58587;53.034;18.576;2023-05-10T18:55:15;10.97;;;5.00;;
70927;SDS011;58587;53.034;18.576;2023-05-10T18:57:41;11.77;;;5.63;;
70927;SDS011;58587;53.034;18.576;2023-05-10T19:00:07;7.35;;;4.20;;
70927;SDS011;58587;53.034;18.576;2023-05-10T19:02:35;12.13;;;4.80;;
70927;SDS011;58587;53.034;18.576;2023-05-10T19:05:01;15.27;;;5.32;;
70927;SDS011;58587;53.034;18.576;2023-05-10T19:07:26;12.87;;;5.83;;
70927;SDS011;58587;53.034;18.576;2023-05-10T19:09:51;29.85;;;14.27;;
70927;SDS011;58587;53.034;18.576;2023-05-10T19:12:17;12.80;;;7.53;;
70927;SDS011;58587;53.034;18.576;2023-05-10T19:14:42;18.37;;;9.60;;
70927;SDS011;58587;53.034;18.576;2023-05-10T19:17:07;18.07;;;9.50;;
70927;SDS011;58587;53.034;18.576;2023-05-10T19:19:33;15.70;;;7.43;;
70927;SDS011;58587;53.034;18.576;2023-05-10T19:21:58;10.20;;;4.57;;
70927;SDS011;58587;53.034;18.576;2023-05-10T19:24:24;14.77;;;6.53;;
70927;SDS011;58587;53.034;18.576;2023-05-10T19:26:49;12.17;;;6.27;;
70927;SDS011;58587;53.034;18.576;2023-05-10T19:29:15;9.33;;;4.43;;
70927;SDS011;58587;53.034;18.576;2023-05-10T19:31:40;12.52;;;4.70;;
70927;SDS011;58587;53.034;18.576;2023-05-10T19:34:06;14.33;;;6.37;;
70927;SDS011;58587;53.034;18.576;2023-05-10T19:36:31;11.67;;;5.37;;
70927;SDS011;58587;53.034;18.576;2023-05-10T19:38:56;8.90;;;4.73;;
70927;SDS011;58587;53.034;18.576;2023-05-10T19:41:22;9.63;;;4.10;;
70927;SDS011;58587;53.034;18.576;2023-05-10T19:43:47;12.27;;;6.05;;
70927;SDS011;58587;53.034;18.576;2023-05-10T19:46:13;9.00;;;4.17;;
70927;SDS011;58587;53.034;18.576;2023-05-10T19:48:38;11.73;;;6.60;;
70927;SDS011;58587;53.034;18.576;2023-05-10T19:51:04;12.43;;;6.97;;
70927;SDS011;58587;53.034;18.576;2023-05-10T19:53:30;9.15;;;5.63;;
70927;SDS011;58587;53.034;18.576;2023-05-10T19:56:01;16.65;;;7.22;;
70927;SDS011;58587;53.034;18.576;2023-05-10T19:58:30;9.15;;;6.10;;
70927;SDS011;58587;53.034;18.576;2023-05-10T20:00:59;6.80;;;4.87;;
70927;SDS011;58587;53.034;18.576;2023-05-10T20:03:24;7.88;;;4.32;;
70927;SDS011;58587;53.034;18.576;2023-05-10T20:05:50;10.57;;;5.23;;
70927;SDS011;58587;53.034;18.576;2023-05-10T20:08:15;9.23;;;4.90;;
70927;SDS011;58587;53.034;18.576;2023-05-10T20:10:40;11.27;;;3.53;;
70927;SDS011;58587;53.034;18.576;2023-05-10T20:13:06;4.22;;;2.42;;
70927;SDS011;58587;53.034;18.576;2023-05-10T20:15:32;12.90;;;5.33;;
70927;SDS011;58587;53.034;18.576;2023-05-10T20:17:58;9.07;;;3.70;;
70927;SDS011;58587;53.034;18.576;2023-05-10T20:20:23;6.73;;;3.17;;
70927;SDS011;58587;53.034;18.576;2023-05-10T20:22:49;9.27;;;3.88;;
70927;SDS011;58587;53.034;18.576;2023-05-10T20:25:15;6.73;;;3.73;;
70927;SDS011;58587;53.034;18.576;2023-05-10T20:27:41;7.30;;;4.25;;
70927;SDS011;58587;53.034;18.576;2023-05-10T20:30:07;9.07;;;4.80;;
70927;SDS011;58587;53.034;18.576;2023-05-10T20:32:34;7.97;;;4.97;;
70927;SDS011;58587;53.034;18.576;2023-05-10T20:35:00;11.77;;;6.47;;
70927;SDS011;58587;53.034;18.576;2023-05-10T20:37:26;10.23;;;6.23;;
70927;SDS011;58587;53.034;18.576;2023-05-10T20:39:52;7.63;;;3.95;;
70927;SDS011;58587;53.034;18.576;2023-05-10T20:42:17;9.85;;;4.55;;
70927;SDS011;58587;53.034;18.576;2023-05-10T20:44:43;6.30;;;3.37;;
70927;SDS011;58587;53.034;18.576;2023-05-10T20:47:08;5.83;;;3.07;;
70927;SDS011;58587;53.034;18.576;2023-05-10T20:49:34;15.30;;;6.57;;
70927;SDS011;58587;53.034;18.576;2023-05-10T20:52:01;9.57;;;4.82;;
70927;SDS011;58587;53.034;18.576;2023-05-10T20:54:27;11.27;;;4.97;;
70927;SDS011;58587;53.034;18.576;2023-05-10T20:56:53;9.13;;;3.83;;
70927;SDS011;58587;53.034;18.576;2023-05-10T20:59:18;6.67;;;3.20;;
70927;SDS011;58587;53.034;18.576;2023-05-10T21:01:44;6.80;;;3.20;;
70927;SDS011;58587;53.034;18.576;2023-05-10T21:04:09;7.00;;;3.80;;
70927;SDS011;58587;53.034;18.576;2023-05-10T21:06:35;9.40;;;4.30;;
70927;SDS011;58587;53.034;18.576;2023-05-10T21:09:01;6.60;;;3.30;;
70927;SDS011;58587;53.034;18.576;2023-05-10T21:11:26;6.87;;;2.93;;
70927;SDS011;58587;53.034;18.576;2023-05-10T21:13:51;8.98;;;3.63;;
